createdAt,value
2022-10-11T00:00:38.449Z,83.90
2022-10-11T00:03:06.567Z,82.04
2022-10-11T00:05:34.459Z,81.98
2022-10-11T00:08:01.895Z,80.69
2022-10-11T00:10:29.351Z,80.52
2022-10-11T00:12:56.758Z,80.43
2022-10-11T00:15:24.180Z,79.33
2022-10-11T00:17:52.918Z,80.40
2022-10-11T00:20:20.546Z,80.08
2022-10-11T00:22:49.231Z,79.83
2022-10-11T00:25:17.558Z,79.89
2022-10-11T00:27:45.505Z,78.94
2022-10-11T00:30:13.921Z,80.38
2022-10-11T00:32:41.431Z,79.46
2022-10-11T00:35:10.671Z,79.75
2022-10-11T00:37:39.725Z,79.69
2022-10-11T00:40:11.376Z,80.22
2022-10-11T00:42:38.827Z,81.20
2022-10-11T00:45:43.522Z,81.47
2022-10-11T00:48:20.413Z,80.16
2022-10-11T00:50:49.374Z,79.53
2022-10-11T00:53:16.885Z,80.16
2022-10-11T00:55:49.990Z,79.53
2022-10-11T00:58:18.815Z,78.17
2022-10-11T01:00:46.391Z,78.28
2022-10-11T01:03:13.777Z,79.21
2022-10-11T01:05:41.245Z,78.89
2022-10-11T01:08:09.984Z,78.60
2022-10-11T01:10:37.673Z,78.72
2022-10-11T01:13:17.376Z,78.99
2022-10-11T01:15:51.345Z,78.53
2022-10-11T01:18:25.747Z,78.03
2022-10-11T01:21:02.610Z,77.39
2022-10-11T01:24:07.437Z,77.67
2022-10-11T01:27:01.891Z,79.29
2022-10-11T01:29:45.347Z,78.99
2022-10-11T01:32:18.107Z,77.10
2022-10-11T01:34:56.632Z,79.03
2022-10-11T01:37:30.289Z,78.97
2022-10-11T01:40:03.448Z,79.05
2022-10-11T01:42:31.360Z,77.40
2022-10-11T01:45:00.297Z,77.98
2022-10-11T01:47:29.052Z,78.07
2022-10-11T01:49:57.928Z,78.09
2022-10-11T01:52:27.714Z,78.97
2022-10-11T01:55:14.024Z,79.00
2022-10-11T01:58:00.755Z,78.10
2022-10-11T02:00:32.562Z,79.04
2022-10-11T02:03:10.077Z,78.63
2022-10-11T02:05:44.104Z,79.16
2022-10-11T02:08:19.883Z,79.37
2022-10-11T02:10:52.901Z,78.59
2022-10-11T02:13:26.809Z,79.37
2022-10-11T02:15:57.088Z,80.65
2022-10-11T02:18:32.110Z,80.39
2022-10-11T02:21:01.726Z,79.30
2022-10-11T02:23:33.663Z,82.45
2022-10-11T02:26:05.509Z,80.34
2022-10-11T02:28:37.397Z,81.06
2022-10-11T02:31:08.124Z,80.89
2022-10-11T02:33:42.742Z,81.04
2022-10-11T02:36:16.608Z,87.31
2022-10-11T02:38:49.616Z,84.17
2022-10-11T02:41:24.177Z,82.40
2022-10-11T02:43:59.375Z,80.91
2022-10-11T02:46:30.400Z,82.91
2022-10-11T02:49:00.590Z,81.00
2022-10-11T02:51:31.531Z,80.91
2022-10-11T02:53:59.061Z,80.40
2022-10-11T02:56:26.566Z,80.73
2022-10-11T02:58:53.974Z,79.43
2022-10-11T03:01:21.815Z,81.09
2022-10-11T03:03:49.294Z,80.56
2022-10-11T03:06:18.043Z,80.04
2022-10-11T03:08:45.500Z,80.56
2022-10-11T03:11:12.889Z,81.06
2022-10-11T03:13:40.262Z,81.38
2022-10-11T03:16:07.728Z,81.22
2022-10-11T03:18:35.253Z,81.22
2022-10-11T03:21:02.615Z,81.48
2022-10-11T03:23:31.364Z,79.69
2022-10-11T03:25:58.794Z,81.74
2022-10-11T03:28:26.198Z,80.73
2022-10-11T03:30:53.740Z,81.69
2022-10-11T03:33:21.156Z,80.67
2022-10-11T03:35:49.954Z,82.13
2022-10-11T03:38:19.741Z,81.69
2022-10-11T03:40:48.487Z,82.70
2022-10-11T03:43:16.143Z,81.39
2022-10-11T03:45:43.757Z,81.58
2022-10-11T03:48:11.578Z,80.53
2022-10-11T03:50:39.519Z,80.93
2022-10-11T03:53:08.496Z,81.34
2022-10-11T03:55:35.959Z,81.75
2022-10-11T03:58:04.671Z,81.69
2022-10-11T04:00:32.068Z,82.07
2022-10-11T04:03:00.245Z,81.87
2022-10-11T04:05:27.704Z,81.22
2022-10-11T04:07:55.078Z,82.15
2022-10-11T04:10:29.087Z,81.41
2022-10-11T04:12:56.455Z,82.90
2022-10-11T04:15:25.336Z,82.10
2022-10-11T04:17:52.696Z,82.50
2022-10-11T04:20:20.212Z,82.08
2022-10-11T04:22:47.624Z,82.04
2022-10-11T04:25:15.201Z,83.62
2022-10-11T04:27:42.575Z,82.88
2022-10-11T04:30:11.823Z,81.20
2022-10-11T04:32:40.496Z,82.45
2022-10-11T04:35:08.391Z,83.31
2022-10-11T04:37:35.840Z,83.49
2022-10-11T04:40:03.592Z,82.54
2022-10-11T04:42:30.981Z,82.84
2022-10-11T04:44:58.650Z,84.10
2022-10-11T04:47:26.087Z,83.16
2022-10-11T04:49:54.787Z,83.50
2022-10-11T04:52:25.560Z,83.69
2022-10-11T04:54:53.388Z,82.87
2022-10-11T04:57:20.824Z,82.14
2022-10-11T04:59:50.308Z,82.87
2022-10-11T05:02:18.015Z,83.30
2022-10-11T05:04:45.499Z,84.45
2022-10-11T05:07:14.621Z,84.00
2022-10-11T05:09:42.031Z,83.35
2022-10-11T05:12:09.556Z,82.96
2022-10-11T05:14:37.196Z,82.78
2022-10-11T05:17:05.037Z,83.11
2022-10-11T05:19:32.427Z,82.82
2022-10-11T05:21:59.819Z,82.32
2022-10-11T05:24:28.506Z,83.01
2022-10-11T05:26:58.699Z,83.88
2022-10-11T05:29:29.997Z,82.83
2022-10-11T05:31:57.644Z,82.77
2022-10-11T05:34:25.088Z,83.63
2022-10-11T05:36:52.457Z,83.02
2022-10-11T05:39:19.799Z,83.13
2022-10-11T05:41:48.558Z,81.69
2022-10-11T05:44:15.969Z,81.88
2022-10-11T05:46:43.430Z,83.01
2022-10-11T05:49:10.829Z,82.62
2022-10-11T05:51:38.204Z,82.39
2022-10-11T05:54:05.594Z,82.20
2022-10-11T05:56:32.973Z,83.26
2022-10-11T05:59:02.660Z,81.24
2022-10-11T06:01:30.267Z,82.63
2022-10-11T06:03:57.734Z,82.86
2022-10-11T06:06:25.128Z,82.01
2022-10-11T06:08:52.663Z,81.60
2022-10-11T06:11:22.478Z,82.88
2022-10-11T06:14:02.624Z,82.57
2022-10-11T06:16:30.163Z,81.24
2022-10-11T06:18:58.882Z,81.76
2022-10-11T06:21:26.865Z,81.13
2022-10-11T06:24:00.812Z,81.90
2022-10-11T06:26:29.105Z,81.66
2022-10-11T06:28:56.635Z,82.21
2022-10-11T06:31:26.168Z,82.59
2022-10-11T06:33:53.552Z,81.10
2022-10-11T06:36:20.931Z,81.11
2022-10-11T06:38:48.380Z,81.23
2022-10-11T06:41:19.026Z,81.47
2022-10-11T06:43:49.426Z,82.86
2022-10-11T06:46:17.643Z,84.16
2022-10-11T06:48:48.036Z,82.67
2022-10-11T06:51:18.623Z,82.18
2022-10-11T06:53:49.884Z,82.59
2022-10-11T06:56:17.276Z,82.37
2022-10-11T06:58:44.829Z,84.13
2022-10-11T07:01:16.262Z,84.02
2022-10-11T07:03:43.679Z,84.00
2022-10-11T07:06:14.894Z,83.94
2022-10-11T07:08:42.506Z,83.17
2022-10-11T07:11:12.088Z,81.80
2022-10-11T07:13:41.404Z,81.17
2022-10-11T07:16:10.981Z,82.36
2022-10-11T07:18:38.747Z,83.96
2022-10-11T07:21:07.986Z,82.45
2022-10-11T07:23:36.695Z,82.64
2022-10-11T07:26:05.087Z,81.68
2022-10-11T07:28:32.745Z,84.90
2022-10-11T07:31:00.200Z,82.49
2022-10-11T07:33:27.587Z,82.58
2022-10-11T07:35:58.357Z,81.76
2022-10-11T07:38:25.744Z,85.04
2022-10-11T07:40:54.846Z,82.98
2022-10-11T07:43:22.258Z,83.83
2022-10-11T07:45:54.288Z,83.51
2022-10-11T07:48:21.897Z,83.06
2022-10-11T07:50:49.786Z,85.08
2022-10-11T07:53:17.247Z,83.39
2022-10-11T07:55:44.673Z,81.26
2022-10-11T07:58:14.149Z,81.64
2022-10-11T08:00:42.689Z,81.62
2022-10-11T08:03:10.444Z,82.87
2022-10-11T08:05:39.057Z,92.05
2022-10-11T08:08:06.515Z,87.27
2022-10-11T08:10:38.460Z,81.54
2022-10-11T08:13:06.153Z,80.36
2022-10-11T08:15:35.030Z,79.73
2022-10-11T08:18:02.612Z,78.68
2022-10-11T08:20:31.125Z,78.42
2022-10-11T08:22:58.563Z,78.53
2022-10-11T08:25:26.051Z,75.21
2022-10-11T08:27:53.434Z,69.59
2022-10-11T08:30:20.860Z,72.92
2022-10-11T08:32:49.553Z,74.67
2022-10-11T08:35:16.907Z,74.89
2022-10-11T08:37:44.335Z,75.66
2022-10-11T08:40:16.598Z,76.08
2022-10-11T08:42:46.482Z,76.02
2022-10-11T08:45:33.312Z,78.15
2022-10-11T08:48:14.379Z,75.65
2022-10-11T08:50:43.649Z,75.45
2022-10-11T08:53:19.667Z,75.09
2022-10-11T08:55:51.670Z,75.55
2022-10-11T08:58:22.912Z,77.32
2022-10-11T09:00:53.755Z,76.37
2022-10-11T09:03:31.808Z,76.64
2022-10-11T09:06:09.090Z,75.87
2022-10-11T09:08:49.403Z,76.83
2022-10-11T09:11:26.718Z,76.31
2022-10-11T09:14:07.275Z,78.06
2022-10-11T09:16:48.501Z,78.52
2022-10-11T09:19:36.466Z,76.53
2022-10-11T09:22:13.173Z,76.68
2022-10-11T09:24:53.295Z,74.82
2022-10-11T09:27:49.937Z,75.29
2022-10-11T09:30:16.078Z,73.56
2022-10-11T09:32:47.323Z,75.50
2022-10-11T09:35:18.380Z,73.98
2022-10-11T09:37:52.195Z,73.48
2022-10-11T09:40:33.811Z,73.73
2022-10-11T09:43:01.234Z,73.38
2022-10-11T09:45:28.647Z,74.35
2022-10-11T09:47:58.623Z,76.73
2022-10-11T09:50:30.584Z,74.02
2022-10-11T09:53:00.329Z,74.95
2022-10-11T09:55:33.846Z,73.02
2022-10-11T09:58:01.707Z,71.95
2022-10-11T10:00:33.455Z,72.12
2022-10-11T10:03:02.482Z,72.74
2022-10-11T10:05:32.473Z,71.80
2022-10-11T10:08:05.016Z,71.72
2022-10-11T10:10:38.545Z,71.37
2022-10-11T10:13:07.950Z,71.56
2022-10-11T10:15:37.656Z,70.31
2022-10-11T10:18:10.379Z,69.75
2022-10-11T10:20:39.184Z,70.81
2022-10-11T10:23:10.846Z,71.47
2022-10-11T10:25:43.593Z,73.12
2022-10-11T10:28:21.162Z,72.38
2022-10-11T10:30:54.499Z,72.43
2022-10-11T10:33:23.849Z,70.33
2022-10-11T10:35:57.505Z,71.11
2022-10-11T10:38:30.075Z,70.82
2022-10-11T10:41:00.030Z,71.20
2022-10-11T10:43:30.578Z,70.94
2022-10-11T10:46:18.314Z,69.00
2022-10-11T10:51:54.689Z,68.13
2022-10-11T10:54:36.178Z,68.33
2022-10-11T10:57:11.841Z,67.53
2022-10-11T10:59:55.089Z,66.80
2022-10-11T11:02:40.367Z,68.42
2022-10-11T11:05:18.768Z,67.22
2022-10-11T11:07:53.702Z,65.22
2022-10-11T11:10:23.800Z,66.59
2022-10-11T11:13:05.199Z,66.76
2022-10-11T11:15:38.508Z,65.58
2022-10-11T11:18:22.120Z,63.65
2022-10-11T11:21:02.473Z,63.07
2022-10-11T11:23:40.296Z,64.71
2022-10-11T11:26:13.810Z,64.53
2022-10-11T11:28:51.019Z,65.76
2022-10-11T11:31:36.452Z,63.90
2022-10-11T11:34:11.267Z,65.79
2022-10-11T11:36:44.018Z,63.68
2022-10-11T11:39:17.760Z,62.88
2022-10-11T11:41:51.825Z,64.53
2022-10-11T11:44:27.516Z,63.69
2022-10-11T11:47:01.426Z,62.52
2022-10-11T11:49:32.814Z,63.73
2022-10-11T11:52:01.153Z,64.90
2022-10-11T11:54:43.305Z,63.78
2022-10-11T11:57:24.554Z,63.51
2022-10-11T11:59:57.857Z,63.09
2022-10-11T12:02:36.582Z,62.61
2022-10-11T12:05:06.984Z,62.53
2022-10-11T12:07:49.786Z,62.12
2022-10-11T12:10:26.046Z,63.44
2022-10-11T12:13:07.080Z,63.76
2022-10-11T12:15:35.065Z,62.55
2022-10-11T12:18:15.127Z,63.73
2022-10-11T12:20:44.661Z,61.54
2022-10-11T12:23:50.561Z,62.01
2022-10-11T12:26:44.003Z,62.43
2022-10-11T12:29:43.551Z,59.98
2022-10-11T12:32:47.899Z,61.30
2022-10-11T12:35:39.965Z,59.91
2022-10-11T12:38:16.563Z,61.22
2022-10-11T12:40:47.060Z,61.25
2022-10-11T12:43:33.635Z,60.49
2022-10-11T12:46:34.094Z,60.59
2022-10-11T12:49:16.483Z,58.28
2022-10-11T12:51:56.578Z,57.80
2022-10-11T12:55:02.903Z,57.22
2022-10-11T12:58:07.801Z,57.37
2022-10-11T13:00:46.654Z,56.80
2022-10-11T13:03:32.222Z,57.76
2022-10-11T13:06:02.022Z,57.53
2022-10-11T13:08:33.403Z,56.67
2022-10-11T13:11:04.262Z,56.41
2022-10-11T13:13:35.561Z,56.12
2022-10-11T13:16:10.031Z,56.10
2022-10-11T13:18:37.503Z,56.31
2022-10-11T13:21:20.290Z,58.63
2022-10-11T13:23:50.646Z,59.54
2022-10-11T13:26:18.110Z,58.65
2022-10-11T13:28:46.122Z,58.41
2022-10-11T13:31:14.963Z,58.90
2022-10-11T13:33:45.795Z,59.32
2022-10-11T13:36:17.589Z,59.08
2022-10-11T13:38:53.813Z,57.68
2022-10-11T13:41:21.952Z,57.45
2022-10-11T13:43:50.220Z,56.62
2022-10-11T13:46:22.501Z,57.95
2022-10-11T13:49:00.476Z,57.60
2022-10-11T13:51:32.508Z,57.15
2022-10-11T13:54:03.001Z,57.52
2022-10-11T13:56:33.090Z,57.72
2022-10-11T13:59:01.585Z,57.96
2022-10-11T14:01:39.209Z,59.41
2022-10-11T14:04:10.144Z,58.84
2022-10-11T14:06:43.941Z,60.11
2022-10-11T14:09:20.962Z,59.07
2022-10-11T14:11:48.667Z,58.58
2022-10-11T14:14:41.260Z,56.46
2022-10-11T14:17:16.360Z,57.99
2022-10-11T14:19:44.528Z,55.77
2022-10-11T14:22:15.849Z,56.89
2022-10-11T14:24:43.619Z,56.03
2022-10-11T14:27:17.665Z,55.39
2022-10-11T14:30:00.314Z,55.04
2022-10-11T14:32:36.353Z,53.60
2022-10-11T14:35:04.710Z,55.38
2022-10-11T14:37:32.311Z,55.91
2022-10-11T14:39:59.772Z,54.40
2022-10-11T14:42:27.138Z,53.48
2022-10-11T14:44:54.550Z,54.61
2022-10-11T14:47:21.946Z,54.23
2022-10-11T14:49:50.958Z,54.50
2022-10-11T14:52:18.352Z,54.23
2022-10-11T14:54:45.725Z,54.25
2022-10-11T14:57:15.260Z,53.98
2022-10-11T14:59:42.685Z,55.41
2022-10-11T15:02:13.155Z,54.83
2022-10-11T15:04:40.529Z,56.39
2022-10-11T15:07:09.474Z,56.45
2022-10-11T15:09:36.843Z,56.51
2022-10-11T15:12:04.587Z,56.42
2022-10-11T15:14:31.959Z,55.17
2022-10-11T15:16:59.349Z,55.61
2022-10-11T15:19:26.781Z,55.32
2022-10-11T15:21:54.272Z,56.49
2022-10-11T15:24:22.971Z,55.25
2022-10-11T15:26:50.615Z,55.39
2022-10-11T15:29:20.301Z,55.41
2022-10-11T15:31:49.255Z,55.38
2022-10-11T15:34:17.251Z,55.42
2022-10-11T15:36:44.739Z,55.64
2022-10-11T15:39:27.362Z,56.99
2022-10-11T15:41:54.831Z,57.59
2022-10-11T15:44:22.246Z,57.69
2022-10-11T15:46:49.707Z,58.47
2022-10-11T15:49:18.164Z,58.65
2022-10-11T15:51:45.558Z,58.25
2022-10-11T15:54:12.946Z,59.04
2022-10-11T15:56:41.646Z,58.47
2022-10-11T15:59:11.195Z,58.54
2022-10-11T16:01:38.608Z,58.81
2022-10-11T16:04:06.270Z,58.98
2022-10-11T16:06:33.687Z,59.66
2022-10-11T16:09:01.100Z,59.09
2022-10-11T16:11:28.499Z,59.66
2022-10-11T16:13:57.383Z,59.76
2022-10-11T16:16:24.743Z,60.70
2022-10-11T16:18:52.161Z,61.07
2022-10-11T16:21:20.817Z,61.18
2022-10-11T16:23:48.277Z,61.76
2022-10-11T16:26:16.904Z,61.66
2022-10-11T16:28:44.567Z,61.96
2022-10-11T16:31:18.074Z,61.63
2022-10-11T16:33:48.716Z,62.42
2022-10-11T16:36:35.448Z,62.24
2022-10-11T16:39:07.100Z,62.26
2022-10-11T16:41:34.619Z,62.37
2022-10-11T16:44:02.306Z,61.89
2022-10-11T16:46:32.219Z,62.21
2022-10-11T16:48:59.926Z,63.38
2022-10-11T16:51:27.361Z,63.27
2022-10-11T16:53:54.768Z,63.07
2022-10-11T16:56:24.064Z,62.62
2022-10-11T16:58:52.223Z,64.18
2022-10-11T17:01:20.059Z,65.25
2022-10-11T17:03:49.456Z,64.83
2022-10-11T17:06:17.374Z,65.52
2022-10-11T17:08:44.794Z,64.19
2022-10-11T17:11:12.283Z,65.75
2022-10-11T17:13:39.676Z,65.74
2022-10-11T17:16:08.487Z,66.55
2022-10-11T17:18:36.888Z,65.71
2022-10-11T17:21:08.256Z,65.04
2022-10-11T17:26:10.847Z,65.96
2022-10-11T17:28:39.423Z,67.42
2022-10-11T17:31:08.976Z,67.30
2022-10-11T17:33:36.883Z,67.09
2022-10-11T17:36:14.824Z,68.54
2022-10-11T17:38:42.339Z,67.48
2022-10-11T17:41:11.006Z,67.75
2022-10-11T17:43:39.057Z,67.41
2022-10-11T17:46:08.826Z,68.38
2022-10-11T17:48:39.195Z,68.24
2022-10-11T17:51:09.836Z,68.63
2022-10-11T17:53:37.955Z,67.97
2022-10-11T17:56:06.683Z,68.83
2022-10-11T17:58:34.345Z,68.32
2022-10-11T18:01:03.340Z,68.32
2022-10-11T18:03:30.979Z,68.80
2022-10-11T18:05:58.507Z,67.58
2022-10-11T18:08:27.444Z,68.91
2022-10-11T18:10:54.801Z,68.93
2022-10-11T18:13:22.358Z,68.59
2022-10-11T18:15:53.486Z,68.20
2022-10-11T18:18:21.155Z,68.24
2022-10-11T18:20:49.619Z,68.13
2022-10-11T18:23:19.018Z,69.09
2022-10-11T18:25:49.373Z,70.29
2022-10-11T18:28:18.002Z,69.95
2022-10-11T18:30:47.417Z,69.73
2022-10-11T18:33:16.579Z,70.22
2022-10-11T18:35:44.186Z,70.24
2022-10-11T18:38:11.641Z,70.07
2022-10-11T18:40:44.728Z,69.90
2022-10-11T18:43:15.648Z,70.08
2022-10-11T18:45:43.045Z,71.15
2022-10-11T18:48:10.476Z,71.12
2022-10-11T18:50:37.942Z,71.52
2022-10-11T18:55:38.218Z,71.31
2022-10-11T18:58:05.615Z,71.26
2022-10-11T19:00:42.421Z,71.95
2022-10-11T19:03:09.906Z,71.93
2022-10-11T19:05:39.277Z,72.08
2022-10-11T19:08:06.993Z,73.23
2022-10-11T19:10:35.061Z,72.14
2022-10-11T19:13:02.543Z,72.21
2022-10-11T19:15:30.034Z,72.93
2022-10-11T19:17:58.766Z,72.82
2022-10-11T19:20:26.137Z,72.52
2022-10-11T19:22:53.587Z,72.72
2022-10-11T19:25:20.992Z,72.95
2022-10-11T19:27:48.395Z,73.34
2022-10-11T19:30:15.800Z,72.75
2022-10-11T19:32:43.381Z,73.05
2022-10-11T19:35:19.036Z,73.27
2022-10-11T19:37:47.362Z,72.74
2022-10-11T19:40:14.816Z,73.18
2022-10-11T19:42:42.235Z,73.16
2022-10-11T19:45:10.280Z,73.52
2022-10-11T19:47:37.889Z,73.91
2022-10-11T19:50:06.062Z,73.52
2022-10-11T19:52:34.886Z,74.35
2022-10-11T19:55:02.355Z,74.67
2022-10-11T19:57:30.078Z,74.82
2022-10-11T19:59:58.440Z,75.34
2022-10-11T20:02:25.834Z,74.44
2022-10-11T20:04:53.478Z,74.69
2022-10-11T20:07:20.903Z,75.96
2022-10-11T20:09:49.705Z,74.49
2022-10-11T20:12:17.080Z,75.75
2022-10-11T20:14:44.518Z,76.02
2022-10-11T20:17:12.131Z,75.56
2022-10-11T20:19:39.519Z,75.85
2022-10-11T20:22:08.804Z,76.19
2022-10-11T20:24:36.205Z,75.77
2022-10-11T20:27:06.288Z,75.36
2022-10-11T20:29:33.730Z,76.00
2022-10-11T20:32:01.199Z,75.77
2022-10-11T20:34:28.829Z,76.82
2022-10-11T20:36:56.251Z,76.60
2022-10-11T20:39:23.808Z,76.99
2022-10-11T20:41:51.465Z,76.06
2022-10-11T20:44:20.154Z,76.48
2022-10-11T20:46:47.603Z,76.41
2022-10-11T20:49:15.241Z,75.88
2022-10-11T20:51:43.744Z,76.87
2022-10-11T20:54:13.529Z,77.10
2022-10-11T20:56:41.496Z,78.56
2022-10-11T20:59:10.075Z,78.28
2022-10-11T21:01:40.967Z,77.54
2022-10-11T21:04:11.287Z,76.66
2022-10-11T21:06:38.763Z,77.23
2022-10-11T21:09:06.143Z,78.61
2022-10-11T21:11:35.479Z,77.75
2022-10-11T21:14:05.082Z,78.13
2022-10-11T21:16:32.649Z,77.08
2022-10-11T21:19:02.809Z,77.17
2022-10-11T21:21:31.367Z,77.46
2022-10-11T21:24:00.196Z,75.77
2022-10-11T21:26:29.091Z,77.30
2022-10-11T21:28:59.160Z,79.09
2022-10-11T21:31:32.923Z,77.55
2022-10-11T21:34:03.932Z,78.21
2022-10-11T21:36:31.459Z,77.28
2022-10-11T21:38:59.103Z,78.38
2022-10-11T21:41:29.073Z,78.64
2022-10-11T21:43:56.995Z,78.40
2022-10-11T21:46:41.645Z,78.30
2022-10-11T21:49:15.231Z,78.57
2022-10-11T21:51:43.930Z,78.47
2022-10-11T21:54:11.344Z,78.18
2022-10-11T21:56:39.348Z,77.67
2022-10-11T21:59:11.094Z,78.17
2022-10-11T22:01:41.929Z,78.83
2022-10-11T22:04:11.055Z,79.50
2022-10-11T22:06:41.062Z,79.17
2022-10-11T22:09:09.739Z,79.41
2022-10-11T22:11:38.674Z,79.78
2022-10-11T22:14:06.237Z,79.63
2022-10-11T22:16:34.925Z,79.92
2022-10-11T22:19:02.527Z,79.88
2022-10-11T22:21:30.153Z,79.37
2022-10-11T22:23:58.899Z,80.04
2022-10-11T22:26:29.836Z,79.47
2022-10-11T22:28:57.461Z,79.14
2022-10-11T22:31:24.952Z,78.37
2022-10-11T22:33:54.756Z,79.55
2022-10-11T22:36:24.130Z,78.96
2022-10-11T22:38:52.148Z,79.98
2022-10-11T22:41:21.165Z,78.79
2022-10-11T22:43:48.780Z,79.77
2022-10-11T22:46:16.393Z,78.89
2022-10-11T22:48:43.847Z,78.89
2022-10-11T22:51:11.249Z,78.59
2022-10-11T22:53:39.661Z,80.11
2022-10-11T22:56:08.740Z,81.08
2022-10-11T22:58:37.487Z,78.23
2022-10-11T23:01:09.449Z,80.29
2022-10-11T23:03:37.141Z,78.19
2022-10-11T23:06:05.032Z,78.56
2022-10-11T23:08:32.695Z,78.06
2022-10-11T23:11:03.493Z,77.20
2022-10-11T23:13:30.887Z,77.58
2022-10-11T23:15:59.692Z,78.55
2022-10-11T23:18:27.080Z,77.59
2022-10-11T23:20:54.470Z,79.13
2022-10-11T23:23:21.824Z,77.97
2022-10-11T23:25:49.230Z,77.56
2022-10-11T23:28:16.662Z,78.07
2022-10-11T23:30:44.099Z,77.32
2022-10-11T23:33:12.839Z,78.55
2022-10-11T23:35:40.293Z,78.28
2022-10-11T23:38:07.804Z,77.99
2022-10-11T23:40:37.068Z,79.00
2022-10-11T23:43:04.423Z,79.28
2022-10-11T23:45:31.787Z,78.43
2022-10-11T23:47:59.246Z,77.37
2022-10-11T23:50:27.974Z,77.26
2022-10-11T23:52:56.996Z,78.65
2022-10-11T23:55:24.367Z,79.08
2022-10-11T23:57:51.899Z,79.34
